Time;durP1;ratioP1;P1;durP2;ratioP2;P2;SDS_P1;SDS_P2;PMS_P1;PMS_P2;Temp;Humidity;BMP_temperature;BMP_pressure;BME280_temperature;BME280_humidity;BME280_pressure;Samples;Min_cycle;Max_cycle;Signal;HPM_P1;HPM_P2
2022/07/22 00:02:09;;;;;;;3.05;0.65;;;19.90;99.90;;;;;;4951547;29;20031;-83
2022/07/22 00:04:36;;;;;;;2.17;0.60;;;20.60;99.90;;;;;;4952551;29;20028;-85
2022/07/22 00:07:04;;;;;;;2.55;0.57;;;20.80;99.90;;;;;;4942300;28;20036;-85
2022/07/22 00:09:32;;;;;;;2.78;0.88;;;21.40;99.90;;;;;;4954095;28;20493;-87
2022/07/22 00:11:59;;;;;;;1.95;0.50;;;22.10;99.90;;;;;;4955344;28;20093;-81
2022/07/22 00:14:27;;;;;;;1.05;0.57;;;22.40;99.90;;;;;;4950241;28;20140;-78
2022/07/22 00:16:55;;;;;;;5.60;0.77;;;22.70;99.90;;;;;;4939493;28;20031;-78
2022/07/22 00:19:24;;;;;;;1.65;0.70;;;22.60;99.90;;;;;;4949546;28;20031;-79
2022/07/22 00:21:52;;;;;;;3.30;0.70;;;22.80;99.90;;;;;;4947831;28;20267;-79
2022/07/22 00:24:20;;;;;;;2.67;1.00;;;22.00;99.90;;;;;;4947188;28;20506;-82
2022/07/22 00:26:47;;;;;;;3.20;0.68;;;21.40;99.90;;;;;;4946438;28;20139;-83
2022/07/22 00:29:15;;;;;;;8.77;1.10;;;20.90;99.90;;;;;;4961245;28;20035;-79
2022/07/22 00:31:42;;;;;;;5.93;1.60;;;20.10;99.90;;;;;;4951915;28;20030;-84
2022/07/22 00:34:10;;;;;;;3.35;0.80;;;19.30;99.90;;;;;;4939747;28;20051;-80
2022/07/22 00:36:37;;;;;;;3.35;0.40;;;18.60;99.90;;;;;;4941414;28;20102;-82
2022/07/22 00:39:05;;;;;;;3.47;0.98;;;17.70;99.90;;;;;;4945477;28;20035;-75
2022/07/22 00:41:32;;;;;;;3.10;0.60;;;17.10;99.90;;;;;;4939479;28;20050;-75
2022/07/22 00:44:04;;;;;;;2.53;0.60;;;16.80;99.90;;;;;;4944153;28;20035;-81
2022/07/22 00:46:38;;;;;;;1.48;0.45;;;16.40;99.90;;;;;;4946342;28;20109;-78
2022/07/22 00:49:08;;;;;;;3.83;0.90;;;16.20;99.90;;;;;;4943908;28;20059;-76
2022/07/22 00:51:39;;;;;;;5.88;1.15;;;16.10;99.90;;;;;;4946581;28;20026;-77
2022/07/22 00:54:07;;;;;;;3.90;1.42;;;16.30;99.90;;;;;;4944207;28;20035;-78
2022/07/22 00:56:36;;;;;;;2.22;0.47;;;17.90;99.90;;;;;;4943226;28;20589;-79
2022/07/22 00:59:11;;;;;;;2.35;0.50;;;18.50;99.90;;;;;;4948746;28;20110;-77
2022/07/22 01:01:39;;;;;;;3.70;0.90;;;18.80;99.90;;;;;;4949110;28;20144;-77
2022/07/22 01:04:06;;;;;;;4.22;0.50;;;18.50;99.90;;;;;;4947317;28;20031;-77
2022/07/22 01:06:34;;;;;;;3.78;0.85;;;18.20;99.90;;;;;;4948006;28;20030;-75
2022/07/22 01:09:02;;;;;;;3.38;0.43;;;19.00;99.90;;;;;;4950453;28;20027;-79
2022/07/22 01:11:30;;;;;;;2.80;0.57;;;20.50;99.90;;;;;;4946151;28;20103;-75
2022/07/22 01:13:58;;;;;;;3.15;0.60;;;21.70;99.90;;;;;;4948700;28;20035;-78
2022/07/22 01:16:26;;;;;;;3.88;0.85;;;23.00;99.90;;;;;;4947975;28;20043;-76
2022/07/22 01:18:53;;;;;;;2.47;0.45;;;23.80;99.90;;;;;;4948416;28;20110;-76
2022/07/22 01:21:22;;;;;;;4.50;0.50;;;24.40;99.70;;;;;;4945616;28;20055;-78
2022/07/22 01:23:50;;;;;;;2.75;0.20;;;24.80;98.90;;;;;;4928055;29;20386;-77
2022/07/22 01:26:18;;;;;;;2.25;0.52;;;25.30;97.30;;;;;;4949722;28;20391;-77
2022/07/22 01:28:45;;;;;;;3.95;0.43;;;25.40;96.60;;;;;;4941405;28;20023;-78
2022/07/22 01:31:13;;;;;;;8.18;1.23;;;25.40;96.20;;;;;;4947956;28;20058;-78
2022/07/22 01:33:40;;;;;;;3.67;0.93;;;25.80;96.30;;;;;;4947314;28;20138;-76
2022/07/22 01:36:08;;;;;;;3.20;0.50;;;26.10;96.60;;;;;;4950369;28;20082;-74
2022/07/22 01:38:36;;;;;;;2.30;0.50;;;26.20;96.00;;;;;;4952240;28;20082;-77
2022/07/22 01:41:03;;;;;;;2.10;0.63;;;26.50;94.80;;;;;;4946110;28;20035;-75
2022/07/22 01:43:31;;;;;;;1.98;0.20;;;26.40;94.10;;;;;;4940215;28;20031;-79
2022/07/22 01:45:58;;;;;;;4.35;0.40;;;24.80;95.50;;;;;;4951513;28;20027;-78
2022/07/22 01:48:26;;;;;;;1.63;0.98;;;23.80;97.70;;;;;;4944022;28;20067;-78
2022/07/22 01:50:54;;;;;;;2.78;0.40;;;23.10;97.90;;;;;;4948670;28;21379;-77
2022/07/22 01:53:21;;;;;;;5.13;0.65;;;22.50;99.00;;;;;;4936507;28;20015;-80
2022/07/22 01:55:49;;;;;;;4.43;0.60;;;21.90;99.30;;;;;;4947605;28;20433;-78
2022/07/22 01:58:16;;;;;;;3.83;0.60;;;20.80;99.90;;;;;;4949221;28;20106;-82
2022/07/22 02:00:44;;;;;;;1.50;0.30;;;19.80;99.90;;;;;;4952921;28;20045;-77
2022/07/22 02:03:12;;;;;;;1.80;0.35;;;18.90;99.90;;;;;;4943612;28;20031;-79
2022/07/22 02:05:40;;;;;;;2.65;0.50;;;18.30;99.90;;;;;;4946693;28;20102;-79
2022/07/22 02:08:10;;;;;;;7.75;0.68;;;17.90;99.90;;;;;;4946455;28;20530;-77
2022/07/22 02:10:38;;;;;;;1.20;0.30;;;17.70;99.90;;;;;;4959207;28;20364;-79
2022/07/22 02:13:06;;;;;;;5.50;0.77;;;17.50;99.90;;;;;;4945636;28;20027;-78
2022/07/22 02:15:34;;;;;;;2.00;0.60;;;17.40;99.90;;;;;;4942099;28;20039;-78
2022/07/22 02:18:10;;;;;;;5.03;1.63;;;17.20;99.90;;;;;;4951755;29;20039;-79
2022/07/22 02:20:37;;;;;;;4.15;0.98;;;17.10;99.90;;;;;;4946798;28;20048;-77
2022/07/22 02:23:05;;;;;;;5.43;1.10;;;17.00;99.90;;;;;;4948010;28;20062;-76
2022/07/22 02:25:33;;;;;;;4.70;1.42;;;17.10;99.90;;;;;;4916567;29;20062;-78
2022/07/22 02:28:01;;;;;;;3.90;0.98;;;17.10;99.90;;;;;;4945817;28;20045;-81
2022/07/22 02:30:28;;;;;;;5.18;0.90;;;17.10;99.90;;;;;;4953232;28;20418;-82
2022/07/22 02:32:56;;;;;;;6.40;1.10;;;17.10;99.90;;;;;;4944017;29;20023;-79
2022/07/22 02:35:24;;;;;;;3.35;0.82;;;17.10;99.90;;;;;;4951018;28;20046;-79
2022/07/22 02:37:51;;;;;;;3.17;1.10;;;17.20;99.90;;;;;;4950762;28;20114;-81
2022/07/22 02:40:19;;;;;;;4.75;0.77;;;17.30;99.90;;;;;;4946890;28;20050;-78
2022/07/22 02:42:46;;;;;;;5.95;0.85;;;17.10;99.90;;;;;;4940253;28;20038;-77
2022/07/22 02:45:14;;;;;;;5.15;1.13;;;17.00;99.90;;;;;;4949583;28;20103;-78
2022/07/22 02:47:53;;;;;;;6.18;0.50;;;16.90;99.90;;;;;;4947082;28;20035;-78
2022/07/22 02:50:21;;;;;;;2.03;0.25;;;16.80;99.90;;;;;;4949798;28;20085;-77
2022/07/22 02:52:49;;;;;;;10.13;0.55;;;16.80;99.90;;;;;;4942308;28;20038;-86
2022/07/22 02:55:16;;;;;;;3.00;0.85;;;16.80;99.90;;;;;;4941863;29;20051;-77
2022/07/22 02:57:44;;;;;;;6.43;1.27;;;16.80;99.90;;;;;;4942110;28;20032;-77
2022/07/22 03:00:13;;;;;;;5.93;0.70;;;16.80;99.90;;;;;;4945536;28;20105;-75
2022/07/22 03:02:40;;;;;;;5.38;0.50;;;16.90;99.90;;;;;;4948088;28;20035;-74
2022/07/22 03:05:08;;;;;;;3.58;0.65;;;16.90;99.90;;;;;;4930261;29;20094;-76
2022/07/22 03:07:36;;;;;;;6.45;0.63;;;17.00;99.90;;;;;;4944260;28;20042;-77
2022/07/22 03:10:26;;;;;;;3.15;0.75;;;17.50;99.90;;;;;;4946988;28;20083;-76
2022/07/22 03:12:53;;;;;;;2.80;0.50;;;18.10;99.90;;;;;;4949796;28;20063;-77
2022/07/22 03:15:21;;;;;;;6.00;0.75;;;18.40;99.90;;;;;;4947100;28;20075;-73
2022/07/22 03:17:48;;;;;;;3.97;0.65;;;18.10;99.90;;;;;;4938217;28;20390;-73
2022/07/22 03:20:16;;;;;;;3.60;0.30;;;18.80;99.90;;;;;;4940361;29;20435;-78
2022/07/22 03:22:43;;;;;;;6.63;0.68;;;18.40;99.90;;;;;;4939193;28;20513;-74
2022/07/22 03:25:11;;;;;;;1.45;0.30;;;18.10;99.90;;;;;;4939566;28;20027;-75
2022/07/22 03:27:38;;;;;;;6.60;0.57;;;17.80;99.90;;;;;;4942709;28;20106;-76
2022/07/22 03:30:07;;;;;;;3.67;0.35;;;17.60;99.90;;;;;;4939054;28;20028;-76
2022/07/22 03:32:34;;;;;;;2.28;0.30;;;17.40;99.90;;;;;;4938813;29;20146;-76
2022/07/22 03:35:02;;;;;;;5.25;0.52;;;17.40;99.90;;;;;;4942083;29;20509;-76
2022/07/22 03:37:29;;;;;;;4.60;0.70;;;17.50;99.90;;;;;;4944535;28;20039;-77
2022/07/22 03:39:57;;;;;;;3.53;1.55;;;17.90;99.90;;;;;;4951855;29;20059;-75
2022/07/22 03:42:24;;;;;;;1.63;0.75;;;18.20;99.90;;;;;;4948003;28;20505;-77
2022/07/22 03:44:52;;;;;;;2.30;0.45;;;18.10;99.90;;;;;;4954121;28;20490;-75
2022/07/22 03:47:22;;;;;;;2.67;0.35;;;17.90;99.90;;;;;;4929819;28;20028;-77
2022/07/22 03:49:51;;;;;;;3.03;0.22;;;17.70;99.90;;;;;;4950137;29;20050;-76
2022/07/22 03:52:18;;;;;;;1.13;0.25;;;17.50;99.90;;;;;;4950883;28;20023;-75
2022/07/22 03:54:46;;;;;;;0.85;0.17;;;17.40;99.90;;;;;;4949879;28;20027;-75
2022/07/22 03:57:13;;;;;;;0.85;0.20;;;17.30;99.90;;;;;;4949228;28;20186;-75
2022/07/22 03:59:41;;;;;;;1.58;0.10;;;17.30;99.90;;;;;;4954400;29;20038;-75
2022/07/22 04:02:08;;;;;;;2.05;0.70;;;17.30;99.90;;;;;;4949469;29;20032;-74
2022/07/22 04:04:35;;;;;;;4.88;1.13;;;17.20;99.90;;;;;;4947190;28;20038;-74
2022/07/22 04:07:03;;;;;;;2.88;0.45;;;17.10;99.90;;;;;;4948796;28;20043;-74
2022/07/22 04:09:34;;;;;;;3.72;0.55;;;17.20;99.90;;;;;;4947594;28;20042;-76
2022/07/22 04:12:02;;;;;;;6.57;0.57;;;17.20;99.90;;;;;;4944435;28;20035;-77
2022/07/22 04:14:29;;;;;;;1.30;0.32;;;17.20;99.90;;;;;;4943579;28;20038;-77
2022/07/22 04:16:56;;;;;;;3.10;1.15;;;17.30;99.90;;;;;;4949230;29;20058;-74
2022/07/22 04:19:24;;;;;;;2.17;0.15;;;17.40;99.90;;;;;;4944352;28;20101;-74
2022/07/22 04:21:51;;;;;;;0.55;0.10;;;17.30;99.90;;;;;;4942611;28;20054;-75
2022/07/22 04:24:19;;;;;;;0.55;0.08;;;17.30;99.90;;;;;;4944821;29;20103;-72
2022/07/22 04:26:47;;;;;;;1.60;0.20;;;17.10;99.90;;;;;;4943009;28;20054;-74
2022/07/22 04:29:14;;;;;;;1.08;0.30;;;17.10;99.90;;;;;;4950879;28;20028;-76
2022/07/22 04:31:42;;;;;;;1.00;0.30;;;17.10;99.90;;;;;;4953505;28;20071;-79
2022/07/22 04:34:09;;;;;;;0.80;0.55;;;17.20;99.90;;;;;;4943236;28;20086;-75
2022/07/22 04:36:37;;;;;;;4.93;0.50;;;17.20;99.90;;;;;;4939512;28;20059;-75
2022/07/22 04:39:07;;;;;;;2.88;0.60;;;17.30;99.90;;;;;;4928885;29;20047;-74
2022/07/22 04:41:35;;;;;;;7.43;1.17;;;17.20;99.90;;;;;;4947662;28;20046;-75
2022/07/22 04:44:02;;;;;;;2.25;0.98;;;17.20;99.90;;;;;;4940930;28;20027;-75
2022/07/22 04:46:29;;;;;;;1.30;0.32;;;17.10;99.90;;;;;;4941739;28;20047;-76
2022/07/22 04:48:57;;;;;;;2.80;0.73;;;17.10;99.90;;;;;;4952588;28;20031;-76
2022/07/22 04:51:25;;;;;;;3.80;0.65;;;16.90;99.90;;;;;;4945138;28;20023;-76
2022/07/22 04:53:52;;;;;;;6.13;0.80;;;16.90;99.90;;;;;;4941696;28;22252;-76
2022/07/22 04:56:21;;;;;;;13.30;0.82;;;16.80;99.90;;;;;;4944286;28;20054;-77
2022/07/22 04:58:48;;;;;;;2.95;0.60;;;16.80;99.90;;;;;;4939002;28;20028;-77
2022/07/22 05:01:16;;;;;;;2.75;1.00;;;16.90;99.90;;;;;;4936661;28;20040;-75
2022/07/22 05:03:44;;;;;;;0.32;0.10;;;16.80;99.90;;;;;;4942587;28;20106;-75
2022/07/22 05:06:12;;;;;;;2.40;0.47;;;16.60;99.90;;;;;;4943312;28;20897;-78
2022/07/22 05:08:41;;;;;;;4.05;0.45;;;16.40;99.90;;;;;;4941480;28;20024;-75
2022/07/22 05:11:08;;;;;;;4.57;0.28;;;16.30;99.90;;;;;;4936958;28;20142;-75
2022/07/22 05:13:35;;;;;;;4.03;1.00;;;16.20;99.90;;;;;;4938353;28;20581;-73
2022/07/22 05:16:07;;;;;;;3.13;0.40;;;16.30;99.90;;;;;;4937114;28;20035;-76
2022/07/22 05:18:35;;;;;;;3.33;0.30;;;16.30;99.90;;;;;;4939086;28;20035;-75
2022/07/22 05:21:03;;;;;;;2.80;0.73;;;16.20;99.90;;;;;;4939982;28;20038;-75
2022/07/22 05:23:31;;;;;;;3.38;0.40;;;16.00;99.90;;;;;;4941636;28;20039;-74
2022/07/22 05:25:59;;;;;;;2.38;0.40;;;15.70;99.90;;;;;;4939374;28;20107;-73
2022/07/22 05:28:26;;;;;;;1.75;0.60;;;15.40;99.90;;;;;;4940891;29;20158;-74
2022/07/22 05:30:54;;;;;;;3.10;0.60;;;15.30;99.90;;;;;;4922758;29;20358;-73
2022/07/22 05:33:21;;;;;;;3.60;0.30;;;15.20;99.90;;;;;;4945073;29;20039;-73
2022/07/22 05:35:48;;;;;;;2.33;0.82;;;15.00;99.90;;;;;;4941598;28;21092;-73
2022/07/22 05:38:16;;;;;;;3.28;0.70;;;14.90;99.90;;;;;;4942692;28;20038;-73
2022/07/22 05:40:43;;;;;;;2.25;0.20;;;14.80;99.90;;;;;;4945961;28;20039;-74
2022/07/22 05:43:11;;;;;;;3.42;0.65;;;14.80;99.90;;;;;;4943415;28;20019;-73
2022/07/22 05:45:38;;;;;;;3.10;0.43;;;14.80;99.90;;;;;;4944323;28;20058;-74
2022/07/22 05:48:06;;;;;;;6.43;1.00;;;14.80;99.90;;;;;;4939436;29;20051;-74
2022/07/22 05:50:33;;;;;;;4.55;0.43;;;14.80;99.90;;;;;;4942593;28;20402;-75
2022/07/22 05:53:01;;;;;;;5.28;0.40;;;14.80;99.90;;;;;;4939743;28;20027;-76
2022/07/22 05:55:28;;;;;;;5.00;1.23;;;14.80;99.90;;;;;;4942493;28;20023;-74
2022/07/22 05:57:56;;;;;;;4.00;0.73;;;14.80;99.90;;;;;;4951500;28;20107;-76
2022/07/22 06:00:26;;;;;;;3.95;0.63;;;14.80;99.90;;;;;;4920532;29;20142;-73
2022/07/22 06:02:54;;;;;;;2.45;0.35;;;14.90;99.90;;;;;;4941293;28;20030;-75
2022/07/22 06:05:22;;;;;;;3.80;1.23;;;14.90;99.90;;;;;;4939160;28;20045;-74
2022/07/22 06:07:49;;;;;;;3.45;0.60;;;15.00;99.90;;;;;;4938651;28;20023;-72
2022/07/22 06:10:17;;;;;;;4.40;0.47;;;15.00;99.90;;;;;;4934315;28;20062;-72
2022/07/22 06:12:44;;;;;;;4.53;1.05;;;15.00;99.90;;;;;;4936733;28;20457;-73
2022/07/22 06:15:11;;;;;;;7.88;1.25;;;15.00;99.90;;;;;;4938806;29;20618;-73
2022/07/22 06:17:39;;;;;;;6.00;1.13;;;15.00;99.90;;;;;;4937147;28;20070;-73
2022/07/22 06:20:07;;;;;;;8.75;0.98;;;14.90;99.90;;;;;;4937269;29;20031;-73
2022/07/22 06:22:35;;;;;;;5.95;0.50;;;14.90;99.90;;;;;;4939622;28;20510;-73
2022/07/22 06:25:03;;;;;;;2.63;0.47;;;14.80;99.90;;;;;;4942197;29;20035;-72
2022/07/22 06:27:30;;;;;;;6.25;0.52;;;14.70;99.90;;;;;;4927449;28;20130;-72
2022/07/22 06:29:57;;;;;;;1.98;0.50;;;14.70;99.90;;;;;;4944205;28;20035;-73
2022/07/22 06:32:25;;;;;;;3.30;0.85;;;14.70;99.90;;;;;;4944632;28;20027;-75
2022/07/22 06:34:52;;;;;;;5.40;0.90;;;14.60;99.90;;;;;;4941050;28;20146;-76
2022/07/22 06:37:20;;;;;;;3.03;1.02;;;14.60;99.90;;;;;;4938096;28;20047;-75
2022/07/22 06:39:47;;;;;;;6.20;0.63;;;14.50;99.90;;;;;;4941532;28;20126;-76
2022/07/22 06:42:15;;;;;;;7.32;0.93;;;14.40;99.90;;;;;;4937810;28;20127;-75
2022/07/22 06:44:42;;;;;;;6.53;0.93;;;14.30;99.90;;;;;;4941598;28;20126;-77
2022/07/22 06:47:10;;;;;;;5.70;0.65;;;14.30;99.90;;;;;;4940138;28;20029;-76
2022/07/22 06:49:37;;;;;;;4.25;0.60;;;14.20;99.90;;;;;;4941226;28;20127;-74
2022/07/22 06:52:05;;;;;;;3.20;0.50;;;14.10;99.90;;;;;;4938295;28;20062;-74
2022/07/22 06:54:32;;;;;;;2.20;0.60;;;14.10;99.90;;;;;;4940821;28;20446;-73
2022/07/22 06:57:00;;;;;;;2.28;0.60;;;14.00;99.90;;;;;;4939484;28;20414;-74
2022/07/22 06:59:27;;;;;;;4.40;1.00;;;14.00;99.90;;;;;;4941158;29;20028;-73
2022/07/22 07:01:55;;;;;;;4.95;0.60;;;14.00;99.90;;;;;;4939336;28;20161;-76
2022/07/22 07:04:22;;;;;;;2.90;0.93;;;14.00;99.90;;;;;;4941133;29;20032;-74
2022/07/22 07:06:49;;;;;;;7.80;0.70;;;13.90;99.90;;;;;;4940986;28;20039;-73
2022/07/22 07:09:17;;;;;;;1.02;0.40;;;13.90;99.90;;;;;;4935580;28;20558;-75
2022/07/22 07:11:44;;;;;;;7.88;1.27;;;13.90;99.90;;;;;;4937006;28;20031;-74
2022/07/22 07:14:12;;;;;;;6.60;1.58;;;14.00;99.90;;;;;;4947406;28;20506;-74
2022/07/22 07:16:39;;;;;;;10.13;4.13;;;14.00;99.90;;;;;;4941526;28;20486;-75
2022/07/22 07:19:06;;;;;;;6.85;2.53;;;13.90;99.90;;;;;;4940484;28;20038;-74
2022/07/22 07:21:34;;;;;;;10.85;3.28;;;13.90;99.90;;;;;;4942656;28;20070;-74
2022/07/22 07:24:01;;;;;;;9.00;2.70;;;13.90;99.90;;;;;;4942079;28;20094;-74
2022/07/22 07:26:29;;;;;;;7.72;2.72;;;13.90;99.90;;;;;;4943315;29;20043;-77
2022/07/22 07:28:56;;;;;;;7.22;5.03;;;13.90;99.90;;;;;;4941122;28;20723;-76
2022/07/22 07:31:23;;;;;;;8.90;4.60;;;14.00;99.90;;;;;;4942656;29;20032;-76
2022/07/22 07:33:53;;;;;;;6.93;4.68;;;13.90;99.90;;;;;;4843615;28;2885599;-74
2022/07/22 07:36:22;;;;;;;8.93;4.97;;;14.00;99.90;;;;;;4942251;29;20149;-76
2022/07/22 07:38:50;;;;;;;7.28;3.92;;;13.90;99.90;;;;;;4943066;29;20031;-76
2022/07/22 07:41:18;;;;;;;9.35;4.38;;;13.90;99.90;;;;;;4941365;28;20160;-76
2022/07/22 07:43:47;;;;;;;9.18;2.10;;;13.90;99.90;;;;;;4944712;29;20134;-77
2022/07/22 07:46:14;;;;;;;5.50;1.60;;;13.80;99.90;;;;;;4943735;28;20512;-75
2022/07/22 07:48:42;;;;;;;5.30;2.10;;;13.80;99.90;;;;;;4941452;28;20035;-76
2022/07/22 07:51:10;;;;;;;7.03;3.28;;;13.90;99.90;;;;;;4942116;28;20127;-75
2022/07/22 07:53:38;;;;;;;6.65;3.25;;;13.80;99.90;;;;;;4943674;29;20145;-76
2022/07/22 07:56:05;;;;;;;5.28;3.80;;;13.70;99.90;;;;;;4944077;28;20457;-77
2022/07/22 07:58:33;;;;;;;9.02;3.90;;;13.70;99.90;;;;;;4943827;29;20478;-73
2022/07/22 08:01:00;;;;;;;7.78;3.95;;;13.60;99.90;;;;;;4943610;28;20138;-73
2022/07/22 08:03:27;;;;;;;8.02;3.08;;;13.60;99.90;;;;;;4942377;29;20132;-75
2022/07/22 08:05:57;;;;;;;6.60;3.05;;;13.50;99.90;;;;;;4943887;28;20058;-76
2022/07/22 08:08:24;;;;;;;8.98;4.50;;;13.40;99.90;;;;;;4941578;28;20032;-76
2022/07/22 08:10:52;;;;;;;6.95;4.25;;;13.30;99.90;;;;;;4942127;28;20050;-76
2022/07/22 08:13:20;;;;;;;5.88;3.90;;;13.30;99.90;;;;;;4944102;29;21409;-74
2022/07/22 08:15:47;;;;;;;7.53;3.60;;;13.30;99.90;;;;;;4941987;28;20034;-76
2022/07/22 08:18:14;;;;;;;10.98;5.63;;;13.30;99.90;;;;;;4942306;29;20030;-76
2022/07/22 08:20:42;;;;;;;7.82;2.13;;;13.40;99.90;;;;;;4944894;28;20047;-76
2022/07/22 08:23:09;;;;;;;5.07;1.27;;;13.50;99.90;;;;;;4950395;29;20139;-76
2022/07/22 08:25:37;;;;;;;10.70;2.30;;;13.50;99.90;;;;;;4951360;28;20042;-76
2022/07/22 08:28:04;;;;;;;7.00;1.67;;;13.60;99.90;;;;;;4936552;28;20502;-75
2022/07/22 08:30:32;;;;;;;4.93;1.05;;;13.60;99.90;;;;;;4952553;28;20043;-74
2022/07/22 08:33:00;;;;;;;6.40;1.25;;;13.60;99.90;;;;;;4948657;29;20027;-76
2022/07/22 08:35:27;;;;;;;10.73;1.88;;;13.60;99.90;;;;;;4950364;28;20038;-77
2022/07/22 08:37:54;;;;;;;4.18;1.10;;;13.60;99.90;;;;;;4950728;28;20038;-75
2022/07/22 08:40:22;;;;;;;3.70;1.05;;;13.60;99.90;;;;;;4952362;29;20398;-74
2022/07/22 08:42:50;;;;;;;3.85;1.25;;;13.70;99.90;;;;;;4950476;28;20027;-75
2022/07/22 08:45:19;;;;;;;8.80;2.67;;;13.60;99.90;;;;;;4939723;28;20054;-75
2022/07/22 08:47:49;;;;;;;4.05;1.40;;;13.60;99.90;;;;;;4951169;29;20024;-75
2022/07/22 08:50:16;;;;;;;3.40;1.00;;;13.60;99.90;;;;;;4952392;28;20031;-74
2022/07/22 08:52:44;;;;;;;5.80;0.60;;;13.60;99.90;;;;;;4949534;29;20085;-76
2022/07/22 08:55:12;;;;;;;6.63;0.85;;;13.60;99.90;;;;;;4951324;28;20137;-75
2022/07/22 08:57:44;;;;;;;3.28;0.80;;;13.70;99.90;;;;;;4944431;29;20066;-76
2022/07/22 09:00:13;;;;;;;3.30;0.90;;;13.70;99.90;;;;;;4951690;28;20135;-76
2022/07/22 09:02:42;;;;;;;2.92;1.25;;;13.60;99.90;;;;;;4949467;29;20031;-77
2022/07/22 09:05:15;;;;;;;2.30;1.10;;;13.60;99.90;;;;;;4952681;29;20434;-75
2022/07/22 09:07:45;;;;;;;7.18;1.65;;;13.60;99.90;;;;;;4949818;29;20082;-76
2022/07/22 09:10:16;;;;;;;7.00;1.38;;;13.60;99.90;;;;;;4941741;28;20038;-77
2022/07/22 09:12:55;;;;;;;7.20;1.92;;;13.60;99.90;;;;;;4951202;29;20034;-77
2022/07/22 09:15:39;;;;;;;4.72;2.42;;;13.60;99.90;;;;;;4949724;28;20049;-77
2022/07/22 09:18:08;;;;;;;6.38;1.98;;;13.60;99.90;;;;;;4934486;29;20032;-77
2022/07/22 09:20:37;;;;;;;5.28;2.50;;;13.60;99.90;;;;;;4938101;28;20484;-77
2022/07/22 09:23:14;;;;;;;5.25;1.83;;;13.50;99.90;;;;;;4936837;28;20040;-76
2022/07/22 09:25:42;;;;;;;10.18;2.20;;;13.60;99.90;;;;;;4945355;29;20067;-76
2022/07/22 09:28:09;;;;;;;4.22;0.80;;;13.60;99.90;;;;;;4946361;28;20123;-76
2022/07/22 09:30:57;;;;;;;2.10;0.90;;;13.50;99.90;;;;;;4948970;28;20035;-77
2022/07/22 09:33:24;;;;;;;2.38;0.73;;;13.60;99.90;;;;;;4950999;28;20481;-76
2022/07/22 09:36:02;;;;;;;3.45;1.60;;;13.50;99.90;;;;;;4948588;28;20585;-74
2022/07/22 09:38:32;;;;;;;2.20;0.75;;;13.60;99.90;;;;;;4949953;29;20023;-74
2022/07/22 09:41:00;;;;;;;3.42;0.63;;;13.60;99.90;;;;;;4950720;28;20047;-76
2022/07/22 09:43:33;;;;;;;1.75;1.17;;;13.60;99.90;;;;;;4927843;29;20027;-75
2022/07/22 09:46:01;;;;;;;1.40;0.40;;;13.50;99.90;;;;;;4937685;29;20082;-73
2022/07/22 09:48:29;;;;;;;3.30;0.50;;;13.40;99.90;;;;;;4950317;29;20118;-76
2022/07/22 09:50:57;;;;;;;1.67;0.90;;;13.40;99.90;;;;;;4946811;29;20036;-75
2022/07/22 09:53:29;;;;;;;3.13;1.08;;;13.30;99.90;;;;;;4932105;29;20039;-75
2022/07/22 09:55:58;;;;;;;3.05;0.63;;;13.20;99.90;;;;;;4949787;29;20066;-75
2022/07/22 09:58:27;;;;;;;2.95;0.93;;;13.20;99.90;;;;;;4932291;29;20126;-75
2022/07/22 10:00:58;;;;;;;2.55;0.35;;;13.10;99.90;;;;;;4933719;29;20039;-74
2022/07/22 10:03:29;;;;;;;2.35;0.60;;;13.10;99.90;;;;;;4935530;29;20023;-74
2022/07/22 10:05:58;;;;;;;3.10;0.90;;;13.10;99.90;;;;;;4944711;29;20150;-74
2022/07/22 10:08:30;;;;;;;2.13;0.93;;;13.10;99.90;;;;;;4946371;29;20490;-73
2022/07/22 10:11:02;;;;;;;6.47;0.75;;;13.10;99.90;;;;;;4949865;29;20095;-74
2022/07/22 10:13:31;;;;;;;2.42;1.02;;;13.10;99.90;;;;;;4939779;29;20705;-75
2022/07/22 10:15:59;;;;;;;2.88;0.90;;;13.10;99.90;;;;;;4949764;29;20035;-72
2022/07/22 10:18:29;;;;;;;1.42;0.55;;;13.10;99.90;;;;;;4940502;29;20059;-75
2022/07/22 10:21:33;;;;;;;3.83;1.55;;;13.10;99.90;;;;;;4950258;29;20072;-74
2022/07/22 10:24:19;;;;;;;1.13;0.88;;;13.20;99.90;;;;;;4942960;29;20031;-75
2022/07/22 10:26:55;;;;;;;4.55;1.75;;;13.10;99.90;;;;;;4950349;29;20035;-75
2022/07/22 10:29:39;;;;;;;3.15;2.00;;;13.20;99.90;;;;;;4952476;29;20114;-75
2022/07/22 10:32:21;;;;;;;3.05;1.13;;;13.20;99.90;;;;;;4941702;28;20040;-74
2022/07/22 10:35:09;;;;;;;5.40;1.17;;;13.10;99.90;;;;;;4938650;29;20462;-75
2022/07/22 10:37:45;;;;;;;2.38;1.10;;;13.20;99.90;;;;;;4938772;28;20050;-75
2022/07/22 10:40:25;;;;;;;2.25;0.88;;;13.10;99.90;;;;;;4946440;29;20121;-75
2022/07/22 10:43:01;;;;;;;2.28;1.60;;;13.10;99.90;;;;;;4947722;29;20031;-74
2022/07/22 10:45:35;;;;;;;2.42;2.20;;;13.10;99.90;;;;;;4949084;29;20035;-73
2022/07/22 10:48:07;;;;;;;4.22;2.92;;;13.00;99.90;;;;;;4947999;29;20019;-74
2022/07/22 10:50:37;;;;;;;4.68;2.15;;;13.00;99.90;;;;;;4944964;29;20032;-77
2022/07/22 10:53:06;;;;;;;3.88;1.20;;;13.10;99.90;;;;;;4946101;29;20042;-73
2022/07/22 10:55:34;;;;;;;4.90;1.63;;;13.10;99.90;;;;;;4955961;29;20030;-74
2022/07/22 10:58:21;;;;;;;2.63;1.27;;;13.10;99.90;;;;;;4949028;29;20031;-73
2022/07/22 11:00:49;;;;;;;7.20;0.80;;;13.10;99.90;;;;;;4915675;29;20201;-75
2022/07/22 11:03:26;;;;;;;3.50;0.82;;;13.00;99.90;;;;;;4955440;28;20042;-74
2022/07/22 11:05:53;;;;;;;2.13;0.70;;;13.00;99.90;;;;;;4953605;29;20051;-73
2022/07/22 11:08:21;;;;;;;1.25;0.40;;;13.00;99.90;;;;;;4949985;28;20440;-75
2022/07/22 11:10:51;;;;;;;4.95;0.70;;;13.00;99.90;;;;;;4955359;29;20031;-74
2022/07/22 11:13:38;;;;;;;5.03;1.33;;;13.00;99.90;;;;;;4952016;29;20066;-75
2022/07/22 11:16:23;;;;;;;4.80;2.92;;;13.00;99.90;;;;;;4948656;29;20024;-73
2022/07/22 11:18:58;;;;;;;4.32;3.13;;;13.00;99.90;;;;;;4953464;28;20073;-75
2022/07/22 11:21:28;;;;;;;4.68;2.20;;;13.00;99.90;;;;;;4951346;29;20067;-76
2022/07/22 11:23:58;;;;;;;3.13;2.00;;;13.00;99.90;;;;;;4937254;29;20027;-74
2022/07/22 11:26:56;;;;;;;5.15;2.72;;;13.00;99.90;;;;;;4946491;29;20082;-76
2022/07/22 11:29:28;;;;;;;4.00;1.83;;;13.00;99.90;;;;;;4954871;29;20046;-74
2022/07/22 11:32:32;;;;;;;2.63;1.98;;;13.00;99.90;;;;;;4954121;29;20087;-77
2022/07/22 11:41:41;;;;;;;7.55;5.25;;;13.10;99.90;;;;;;4951101;29;20050;-74
2022/07/22 11:44:08;;;;;;;6.95;5.05;;;13.10;99.90;;;;;;4952312;28;20027;-75
2022/07/22 11:46:38;;;;;;;6.75;4.07;;;13.00;99.90;;;;;;4950111;29;20110;-73
2022/07/22 11:49:07;;;;;;;7.88;4.88;;;13.00;99.90;;;;;;4943859;28;20036;-72
2022/07/22 11:51:36;;;;;;;7.45;4.25;;;13.00;99.90;;;;;;4941415;29;20023;-72
2022/07/22 11:54:05;;;;;;;9.43;5.47;;;12.90;99.90;;;;;;4956091;29;20028;-74
2022/07/22 11:56:33;;;;;;;7.47;4.55;;;12.90;99.90;;;;;;4953822;29;20035;-75
2022/07/22 11:59:04;;;;;;;7.47;4.68;;;12.80;99.90;;;;;;4948080;29;20087;-73
2022/07/22 12:01:34;;;;;;;7.07;4.20;;;12.90;99.90;;;;;;4952554;29;20039;-75
2022/07/22 12:04:07;;;;;;;8.60;4.10;;;12.90;99.90;;;;;;4951944;28;20050;-74
2022/07/22 12:06:39;;;;;;;5.20;3.53;;;12.90;99.90;;;;;;4951637;29;20038;-74
2022/07/22 12:09:12;;;;;;;9.27;4.10;;;12.90;99.90;;;;;;4950878;29;20027;-74
2022/07/22 12:11:49;;;;;;;6.05;3.22;;;12.90;99.90;;;;;;4953769;29;20035;-73
2022/07/22 12:14:21;;;;;;;8.00;4.57;;;12.90;99.90;;;;;;4955098;28;20106;-73
2022/07/22 12:17:05;;;;;;;7.13;3.88;;;12.90;99.90;;;;;;4945902;29;20042;-73
2022/07/22 12:19:35;;;;;;;9.10;4.07;;;12.90;99.90;;;;;;4935943;29;20032;-73
2022/07/22 12:22:07;;;;;;;5.38;3.67;;;12.80;99.90;;;;;;4949178;29;20714;-75
2022/07/22 12:24:38;;;;;;;4.70;3.47;;;12.90;99.90;;;;;;4954853;29;20106;-74
2022/07/22 12:27:07;;;;;;;8.15;3.92;;;12.80;99.90;;;;;;4946544;29;20038;-75
2022/07/22 12:29:37;;;;;;;7.15;4.20;;;12.80;99.90;;;;;;4954624;29;20039;-76
2022/07/22 12:32:10;;;;;;;8.50;5.35;;;12.80;99.90;;;;;;4950368;29;20067;-74
2022/07/22 12:34:40;;;;;;;7.65;3.65;;;12.80;99.90;;;;;;4954353;28;20051;-74
2022/07/22 12:37:23;;;;;;;5.80;3.35;;;12.70;99.90;;;;;;4946465;29;20042;-74
2022/07/22 12:40:04;;;;;;;5.60;3.17;;;12.70;99.90;;;;;;4951534;29;20094;-73
2022/07/22 12:42:35;;;;;;;7.43;3.35;;;12.70;99.90;;;;;;4950004;29;20031;-75
2022/07/22 12:45:14;;;;;;;4.50;3.20;;;12.60;99.90;;;;;;4948745;29;20386;-74
2022/07/22 12:47:55;;;;;;;6.47;3.15;;;12.50;99.90;;;;;;4951647;29;20035;-80
2022/07/22 12:50:53;;;;;;;6.38;3.75;;;12.50;99.90;;;;;;4926725;29;20115;-75
2022/07/22 12:53:21;;;;;;;4.05;3.22;;;12.40;99.90;;;;;;4946699;29;20032;-75
2022/07/22 12:55:56;;;;;;;4.85;3.33;;;12.30;99.90;;;;;;4950197;29;20110;-77
2022/07/22 12:58:28;;;;;;;5.37;2.70;;;12.20;99.90;;;;;;4952998;29;20027;-73
2022/07/22 13:00:58;;;;;;;3.85;2.67;;;12.10;99.90;;;;;;4951531;29;20043;-75
2022/07/22 13:03:26;;;;;;;5.57;2.75;;;12.10;99.90;;;;;;4951529;29;20124;-75
2022/07/22 13:05:57;;;;;;;2.85;2.15;;;12.00;99.90;;;;;;4948074;29;20028;-75